x

Boston 16 Nm East Of Boston, Ma (44013) Wave Buoy

4:50 - Fri 28th Apr 2017 All times are EDT. -4 hours from GMT.

  • Sig Wave height 3.3ft
  • Swell Direction
  • Peak Period 10s
  • Average Period 7s
  • Wind
    11mph, 13mph gusts
  • Sea Temp 47°f
  • Aire Temp 49°f
  • Sea Pressure 1012.7mb
  • Boston 16 Nm East Of Boston, Ma
  • Boston 16 Nm East Of Boston, Ma

More Historic Weather Station data

Upgrade to MSW Pro to gain access to the past 30 days of data for over 8000 Wavebouys and Weather Stations around the globe.

Join Pro

Comparision Forecast

View Surf forecast
   
vie 04/28 4:50 3.5ft 10s 7s 11 13 mph 1012.7mb 47f 49f
3:50 4.5ft 9s 8s 11
mph
1013.2mb 47f 49f
2:50 3.5ft 9s 7s 9 11 mph 1012.8mb 47f 49f
1:50 3.5ft 9s 7s 11 13 mph 1013mb 47f 50f
12:50 3.5ft 10s 6s 9
mph
1013mb 47f 50f
jue 04/27 11:50 4ft 10s 6s 9 11 mph 1012.9mb 47f 50f
10:50 4.5ft 10s 6s 11
mph
1013.1mb 47f 50f
9:50 4.5ft 10s 7s 11 13 mph 1013.3mb 47f 50f
7:50 4.5ft 11s 7s 7
mph
1013.1mb 48f 49f
6:50 4.5ft 10s 7s 7 9 mph 1012.5mb 48f 48f
5:50 4ft 10s 7s 7
mph
1013.1mb 49f 49f
4:50 4ft 10s 7s 7 9 mph 1012.9mb 48f 49f
3:50 4ft 10s 7s 7
mph
1012.6mb 50f 50f
2:50 4ft 10s 7s 4
mph
1012.7mb 48f 50f
1:50 4ft 10s 7s 2 4 mph 1012.8mb 50f 50f
12:50 4.5ft 10s 7s 2 4 mph 1012.6mb 49f 50f
11:50 4.5ft 10s 6s 2 4 mph 1013mb 48f 50f
10:50 4.5ft 8s 6s 2 4 mph 1012.9mb 47f 49f
9:50 4.5ft 9s 6s 4
mph
1012.8mb 47f 47f
8:50 4.5ft 8s 7s 4 7 mph 1012.3mb 46f 47f
7:50 4.5ft 8s 6s 4 7 mph 1012.3mb 46f 47f
6:50 5ft 11s 7s 4 7 mph 1011.7mb 45f 47f
5:50 5ft 10s 7s 4 7 mph 1011.1mb 45f 46f
4:50 4.5ft 10s 7s 2
mph
1010.4mb 45f 46f
3:50 5ft 9s 7s 9 11 mph 1010mb 45f 46f
2:50 4.5ft 9s 6s 2
mph
1010mb 45f 46f
1:50 4.5ft 7s 6s 4
mph
1010.1mb 45f 46f
12:50 4.5ft 8s 6s 2 4 mph 1009.9mb 46f 46f
mié 04/26 11:50 4.5ft 8s 6s 4 7 mph 1009.8mb 46f 47f
10:50 4.5ft 7s 6s 2 4 mph 1009.5mb 47f 48f
9:50 5ft 7s 6s 7 9 mph 1008.7mb 47f 47f
7:50 5.5ft 7s 6s 13 16 mph 1009mb 47f 49f
6:50 5.5ft 6s 6s 11 13 mph 1009.1mb 47f 49f
5:50 5ft 7s 6s 11 13 mph 1009.1mb 47f 49f
4:50 5ft 7s 6s 9 11 mph 1009mb 47f 50f
3:50 5ft 7s 6s 11
mph
1009.3mb 47f 50f
2:50 4.5ft 7s 6s 9 13 mph 1009.7mb 47f 49f
1:50 4.5ft 7s 5s 9 11 mph 1009.8mb 46f 49f
12:50 5ft 7s 5s 11 13 mph 1010.2mb 46f 50f
11:50 5ft 7s 5s 16 18 mph 1010.2mb 46f 51f
10:50 5ft 7s 5s 11 13 mph 1010.5mb 46f 49f
9:50 5ft 7s 5s 11 13 mph 1010.8mb 46f 48f
8:50 6ft 7s 5s 13 16 mph 1011.2mb 46f 48f
7:50 5.5ft 7s 5s 18 20 mph 1011.3mb 46f 49f
6:50 5.5ft 7s 5s 18 20 mph 1011.4mb 46f 48f
5:50 5ft 7s 6s 13 18 mph 1012mb 46f 48f
4:50 5.5ft 7s 6s 13 18 mph 1012mb 46f 48f
3:50 6ft 7s 6s 7 9 mph 1013.6mb 46f 47f
2:50 6ft 7s 6s 4 7 mph 1014.5mb 46f 47f
1:50 6.5ft 7s 6s 2 4 mph 1015.4mb 46f 48f
12:50 6ft 7s 5s 7 9 mph 1015.9mb 46f 48f
mar 04/25 11:50 5.5ft 7s 5s 7 9 mph 1016.6mb 46f 48f
10:50 6ft 7s 5s 7 9 mph 1017.4mb 46f 48f
9:50 5.5ft 6s 5s 4 7 mph 1018.9mb 46f 47f
8:50 6ft 6s 5s 16 20 mph 1018.7mb 46f 47f
7:50 6ft 6s 5s 16 18 mph 1019.5mb 46f 47f
6:50 6ft 6s 5s 16 20 mph 1020.4mb 46f 46f
5:50 5ft 6s 5s 11 16 mph 1021.4mb 46f 46f
4:50 5ft 6s 5s 16 18 mph 1021.9mb 46f 46f
3:50 5ft 5s 5s 18 20 mph 1022.3mb 46f 46f
2:50 4.5ft 5s 5s 18 22 mph 1022.8mb 46f 45f
1:50 4.5ft 5s 4s 22 27 mph 1022.8mb 46f 45f
12:50 3.5ft 5s 4s 20 25 mph 1023.4mb 46f 46f
11:50 3.5ft 4s 4s 20 25 mph 1023.8mb 46f 46f
10:50 3.5ft 4s 4s 20 22 mph 1024.1mb 46f 46f
9:50 3ft 4s 4s 18 22 mph 1024.2mb 46f 47f
8:50 2.5ft 10s 4s 18 20 mph 1024.1mb 46f 47f
7:50 2.5ft 11s 5s 16 18 mph 1024.6mb 46f 47f
6:50 2.5ft 9s  -  13 16 mph 1023.8mb 46f 46f
5:50 2.5ft 10s 5s 13 16 mph 1023mb 46f 46f
4:50 2.5ft 10s 5s 11 13 mph 1022.7mb 46f 46f
3:50 2.5ft 10s 6s 11 13 mph 1022.6mb 46f 46f
2:50 2.5ft 10s 7s 11 13 mph 1022.9mb 46f 46f
1:50 2.5ft 11s 7s 9 11 mph 1022.9mb 46f 46f
12:50 2.5ft 10s 6s 9 11 mph 1022.5mb 46f 46f
lun 04/24 11:50 2ft 10s 5s 4 7 mph 1022.2mb 46f 47f
10:50 2.5ft 10s 5s 7 9 mph 1021.6mb 46f 47f
9:50 2.5ft 11s 5s 13 16 mph 1021.3mb 46f 49f
8:50 2.5ft 9s 4s 16 18 mph 1020.9mb 46f 48f
7:50 2.5ft 10s 5s 16 18 mph 1020.4mb 46f 49f
6:50 2.5ft 10s 6s 16
mph
1020.5mb 46f 49f
5:50 2.5ft 10s 6s 13
mph
1020.3mb 46f 50f
4:50 2.5ft 10s 7s 13 16 mph 1020.2mb 47f 50f
3:50 2.5ft 10s 8s 9 11 mph 1020.6mb 48f 49f
2:50 2.5ft 11s 8s 9 11 mph 1020.9mb 48f 50f
1:50 2.5ft 11s 8s 7
mph
1021mb 47f 49f
12:50 2.5ft 10s 7s 4 7 mph 1020.9mb 48f 49f
11:50 2.5ft 11s 7s 7
mph
1021.2mb 47f 49f
10:50 2.5ft 8s 7s 4
mph
1021.1mb 47f 48f